createdAt,value
2022-11-27T00:01:17.473Z,7.40
2022-11-27T00:03:47.785Z,7.50
2022-11-27T00:06:16.257Z,7.50
2022-11-27T00:08:44.884Z,7.50
2022-11-27T00:11:13.903Z,7.50
2022-11-27T00:13:42.076Z,7.50
2022-11-27T00:16:10.725Z,7.50
2022-11-27T00:18:40.122Z,7.60
2022-11-27T00:21:09.006Z,7.50
2022-11-27T00:23:37.201Z,7.50
2022-11-27T00:26:06.010Z,7.40
2022-11-27T00:28:34.583Z,7.40
2022-11-27T00:31:03.320Z,7.40
2022-11-27T00:33:31.351Z,7.30
2022-11-27T00:36:04.174Z,7.30
2022-11-27T00:38:38.737Z,7.20
2022-11-27T00:41:07.724Z,7.20
2022-11-27T00:43:43.717Z,7.10
2022-11-27T00:46:13.022Z,7.00
2022-11-27T00:48:41.165Z,7.00
2022-11-27T00:51:17.872Z,7.00
2022-11-27T00:53:45.998Z,7.00
2022-11-27T00:56:16.116Z,6.90
2022-11-27T00:58:44.177Z,6.80
2022-11-27T01:01:16.552Z,6.70
2022-11-27T01:03:44.469Z,6.60
2022-11-27T01:06:14.036Z,6.50
2022-11-27T01:08:42.114Z,6.30
2022-11-27T01:11:14.680Z,6.10
2022-11-27T01:13:42.747Z,5.90
2022-11-27T01:16:11.840Z,5.70
2022-11-27T01:18:40.865Z,5.60
2022-11-27T01:21:09.549Z,5.40
2022-11-27T01:23:38.858Z,5.30
2022-11-27T01:26:07.657Z,5.20
2022-11-27T01:28:36.121Z,5.10
2022-11-27T01:31:06.259Z,5.00
2022-11-27T01:33:34.370Z,4.90
2022-11-27T01:36:11.611Z,4.70
2022-11-27T01:38:40.948Z,4.60
2022-11-27T01:41:10.195Z,4.50
2022-11-27T01:43:39.891Z,4.30
2022-11-27T01:46:11.883Z,4.20
2022-11-27T01:48:39.742Z,4.20
2022-11-27T01:51:07.671Z,4.10
2022-11-27T01:53:35.723Z,4.00
2022-11-27T01:56:08.382Z,3.90
2022-11-27T01:58:36.766Z,3.90
2022-11-27T02:01:05.737Z,3.80
2022-11-27T02:03:36.018Z,3.90
2022-11-27T02:06:04.090Z,3.90
2022-11-27T02:08:32.145Z,4.00
2022-11-27T02:11:03.802Z,3.90
2022-11-27T02:13:34.833Z,3.90
2022-11-27T02:16:06.832Z,3.90
2022-11-27T02:18:39.408Z,3.90
2022-11-27T02:21:11.802Z,3.90
2022-11-27T02:23:50.605Z,3.90
2022-11-27T02:26:25.441Z,3.80
2022-11-27T02:29:05.421Z,3.60
2022-11-27T02:31:37.919Z,3.60
2022-11-27T02:34:10.978Z,3.60
2022-11-27T02:36:44.799Z,3.60
2022-11-27T02:39:14.688Z,3.60
2022-11-27T02:41:44.085Z,3.40
2022-11-27T02:44:13.861Z,3.40
2022-11-27T02:46:49.714Z,3.30
2022-11-27T02:49:18.925Z,3.30
2022-11-27T02:51:50.273Z,3.30
2022-11-27T02:54:20.747Z,3.30
2022-11-27T02:56:49.908Z,3.30
2022-11-27T02:59:20.046Z,3.30
2022-11-27T03:01:51.050Z,3.20
2022-11-27T03:04:21.976Z,3.00
2022-11-27T03:06:51.878Z,2.90
2022-11-27T03:09:21.500Z,2.90
2022-11-27T03:11:50.189Z,2.90
2022-11-27T03:14:20.431Z,2.90
2022-11-27T03:16:52.124Z,2.90
2022-11-27T03:19:22.711Z,2.90
2022-11-27T03:21:53.467Z,3.00
2022-11-27T03:24:21.561Z,3.00
2022-11-27T03:26:49.576Z,3.00
2022-11-27T03:29:20.903Z,2.90
2022-11-27T03:31:49.359Z,3.00
2022-11-27T03:34:17.312Z,3.00
2022-11-27T03:36:46.138Z,3.00
2022-11-27T03:39:14.355Z,2.90
2022-11-27T03:41:46.074Z,2.90
2022-11-27T03:44:29.006Z,2.80
2022-11-27T03:47:03.865Z,2.80
2022-11-27T03:49:35.271Z,2.70
2022-11-27T03:52:08.113Z,2.60
2022-11-27T03:54:42.679Z,2.60
2022-11-27T03:57:20.151Z,2.60
2022-11-27T03:59:48.914Z,2.60
2022-11-27T04:02:28.784Z,2.50
2022-11-27T04:04:56.659Z,2.50
2022-11-27T04:07:24.587Z,2.50
2022-11-27T04:09:52.474Z,2.50
2022-11-27T04:12:20.299Z,2.50
2022-11-27T04:14:48.107Z,2.40
2022-11-27T04:17:15.926Z,2.40
2022-11-27T04:19:45.102Z,2.40
2022-11-27T04:22:12.999Z,2.40
2022-11-27T04:24:41.066Z,2.40
2022-11-27T04:27:09.003Z,2.40
2022-11-27T04:29:37.647Z,2.40
2022-11-27T04:32:05.612Z,2.40
2022-11-27T04:34:33.635Z,2.40
2022-11-27T04:37:03.016Z,2.30
2022-11-27T04:39:30.928Z,2.20
2022-11-27T04:41:58.844Z,2.20
2022-11-27T04:44:26.603Z,2.10
2022-11-27T04:46:54.460Z,2.10
2022-11-27T04:49:22.644Z,2.10
2022-11-27T04:51:50.689Z,2.10
2022-11-27T04:54:20.162Z,2.00
2022-11-27T04:56:48.052Z,2.00
2022-11-27T04:59:15.881Z,1.90
2022-11-27T05:01:43.727Z,1.90
2022-11-27T05:04:11.558Z,1.90
2022-11-27T05:06:39.413Z,1.90
2022-11-27T05:09:07.278Z,1.90
2022-11-27T05:11:36.486Z,1.90
2022-11-27T05:14:19.383Z,1.90
2022-11-27T05:16:49.544Z,1.90
2022-11-27T05:19:18.309Z,1.80
2022-11-27T05:21:46.811Z,1.80
2022-11-27T05:24:15.587Z,1.80
2022-11-27T05:26:45.248Z,1.80
2022-11-27T05:29:13.697Z,1.80
2022-11-27T05:31:41.708Z,1.70
2022-11-27T05:34:10.091Z,1.70
2022-11-27T05:36:38.009Z,1.70
2022-11-27T05:39:07.335Z,1.70
2022-11-27T05:41:35.561Z,1.70
2022-11-27T05:44:04.882Z,1.70
2022-11-27T05:46:33.173Z,1.60
2022-11-27T05:49:01.102Z,1.70
2022-11-27T05:51:28.997Z,1.70
2022-11-27T05:53:56.866Z,1.70
2022-11-27T05:56:24.887Z,1.70
2022-11-27T05:58:52.686Z,1.60
2022-11-27T06:01:21.883Z,1.60
2022-11-27T06:03:49.740Z,1.70
2022-11-27T06:06:18.723Z,1.60
2022-11-27T06:08:47.006Z,1.60
2022-11-27T06:11:16.454Z,1.60
2022-11-27T06:13:44.653Z,1.60
2022-11-27T06:16:13.184Z,1.60
2022-11-27T06:18:42.789Z,1.60
2022-11-27T06:21:11.223Z,1.60
2022-11-27T06:23:40.482Z,1.60
2022-11-27T06:26:12.537Z,1.50
2022-11-27T06:28:41.090Z,1.50
2022-11-27T06:31:14.489Z,1.40
2022-11-27T06:33:46.743Z,1.30
2022-11-27T06:36:14.927Z,1.20
2022-11-27T06:38:42.888Z,1.20
2022-11-27T06:41:11.685Z,1.20
2022-11-27T06:43:39.887Z,1.20
2022-11-27T06:46:09.028Z,1.30
2022-11-27T06:48:37.037Z,1.40
2022-11-27T06:51:08.627Z,1.50
2022-11-27T06:53:38.553Z,1.60
2022-11-27T06:56:07.064Z,1.80
2022-11-27T06:58:34.922Z,2.00
2022-11-27T07:01:03.709Z,2.00
2022-11-27T07:03:34.979Z,2.10
2022-11-27T07:06:03.662Z,2.30
2022-11-27T07:08:34.080Z,2.40
2022-11-27T07:11:02.570Z,2.40
2022-11-27T07:13:30.658Z,2.40
2022-11-27T07:16:00.681Z,2.50
2022-11-27T07:18:28.673Z,2.50
2022-11-27T07:20:56.924Z,2.60
2022-11-27T07:23:25.107Z,2.60
2022-11-27T07:25:54.417Z,2.60
2022-11-27T07:28:22.247Z,2.70
2022-11-27T07:30:55.625Z,2.70
2022-11-27T07:33:23.839Z,2.80
2022-11-27T07:35:51.862Z,2.90
2022-11-27T07:38:19.961Z,3.00
2022-11-27T07:40:49.062Z,3.20
2022-11-27T07:43:19.092Z,3.40
2022-11-27T07:45:47.058Z,3.50
2022-11-27T07:48:16.673Z,3.60
2022-11-27T07:50:44.637Z,3.70
2022-11-27T07:53:12.497Z,3.80
2022-11-27T07:55:40.412Z,3.90
2022-11-27T07:58:08.616Z,4.10
2022-11-27T08:00:38.233Z,4.30
2022-11-27T08:03:06.145Z,4.10
2022-11-27T08:05:34.662Z,4.30
2022-11-27T08:08:04.218Z,4.50
2022-11-27T08:10:32.229Z,4.70
2022-11-27T08:13:00.765Z,4.70
2022-11-27T08:15:29.037Z,4.50
2022-11-27T08:17:59.270Z,4.50
2022-11-27T08:20:37.129Z,4.60
2022-11-27T08:23:05.629Z,4.60
2022-11-27T08:25:33.619Z,4.60
2022-11-27T08:28:01.574Z,4.60
2022-11-27T08:30:29.574Z,4.60
2022-11-27T08:32:58.849Z,4.80
2022-11-27T08:35:27.967Z,4.90
2022-11-27T08:37:55.966Z,4.70
2022-11-27T08:40:24.162Z,4.80
2022-11-27T08:42:53.583Z,4.90
2022-11-27T08:45:21.523Z,5.10
2022-11-27T08:47:49.626Z,5.30
2022-11-27T08:50:19.072Z,5.30
2022-11-27T08:52:47.059Z,5.20
2022-11-27T08:55:15.082Z,5.30
2022-11-27T08:57:43.005Z,5.40
2022-11-27T09:00:12.017Z,5.50
2022-11-27T09:02:39.986Z,5.70
2022-11-27T09:05:08.216Z,5.80
2022-11-27T09:07:37.618Z,6.10
2022-11-27T09:10:06.263Z,6.20
2022-11-27T09:12:34.249Z,6.50
2022-11-27T09:15:02.265Z,6.60
2022-11-27T09:17:31.310Z,6.70
2022-11-27T09:19:59.352Z,6.80
2022-11-27T09:22:27.294Z,6.90
2022-11-27T09:24:56.714Z,6.90
2022-11-27T09:27:24.719Z,6.90
2022-11-27T09:29:52.633Z,6.80
2022-11-27T09:32:20.869Z,6.70
2022-11-27T09:34:48.832Z,6.80
2022-11-27T09:37:16.694Z,7.00
2022-11-27T09:39:44.568Z,7.40
2022-11-27T09:42:18.467Z,7.60
2022-11-27T09:44:48.196Z,8.00
2022-11-27T09:47:19.742Z,8.50
2022-11-27T09:49:51.272Z,8.90
2022-11-27T09:52:22.708Z,9.30
2022-11-27T09:54:54.875Z,9.70
2022-11-27T09:57:26.359Z,10.00
2022-11-27T09:59:54.916Z,10.20
2022-11-27T10:02:26.325Z,10.20
2022-11-27T10:07:48.777Z,10.40
2022-11-27T10:10:24.874Z,10.50
2022-11-27T10:13:00.544Z,10.80
2022-11-27T10:15:35.286Z,10.90
2022-11-27T10:18:06.104Z,11.00
2022-11-27T10:20:37.782Z,11.50
2022-11-27T10:23:07.123Z,12.60
2022-11-27T10:25:40.059Z,14.40
2022-11-27T10:28:17.122Z,15.80
2022-11-27T10:30:51.490Z,16.50
2022-11-27T10:33:21.482Z,16.80
2022-11-27T10:35:50.890Z,16.90
2022-11-27T10:38:20.527Z,16.80
2022-11-27T10:40:53.033Z,16.80
2022-11-27T10:43:23.324Z,17.00
2022-11-27T10:45:53.414Z,17.30
2022-11-27T10:48:21.863Z,17.50
2022-11-27T10:50:50.215Z,17.60
2022-11-27T10:53:24.412Z,17.50
2022-11-27T10:55:56.814Z,17.50
2022-11-27T10:58:29.342Z,17.70
2022-11-27T11:01:02.969Z,17.70
2022-11-27T11:03:33.810Z,17.40
2022-11-27T11:06:21.369Z,16.90
2022-11-27T11:08:50.710Z,16.80
2022-11-27T11:11:26.311Z,16.80
2022-11-27T11:13:56.093Z,16.20
2022-11-27T11:16:29.409Z,15.60
2022-11-27T11:19:01.534Z,15.20
2022-11-27T11:21:30.937Z,14.90
2022-11-27T11:23:59.980Z,14.70
2022-11-27T11:26:35.336Z,14.60
2022-11-27T11:29:07.058Z,14.40
2022-11-27T11:31:36.108Z,14.50
2022-11-27T11:34:06.122Z,14.60
2022-11-27T11:36:34.545Z,14.70
2022-11-27T11:39:02.983Z,14.80
2022-11-27T11:41:37.366Z,15.30
2022-11-27T11:44:06.944Z,16.10
2022-11-27T11:46:36.856Z,17.30
2022-11-27T11:49:07.298Z,18.60
2022-11-27T11:51:53.323Z,19.70
2022-11-27T11:54:29.967Z,21.20
2022-11-27T11:57:01.265Z,22.60
2022-11-27T11:59:42.096Z,23.70
2022-11-27T12:02:29.883Z,23.90
2022-11-27T12:05:12.899Z,24.00
2022-11-27T12:07:52.569Z,23.60
2022-11-27T12:10:23.834Z,23.60
2022-11-27T12:12:56.201Z,22.60
2022-11-27T12:15:28.228Z,21.20
2022-11-27T12:17:58.865Z,19.80
2022-11-27T12:20:28.660Z,18.40
2022-11-27T12:23:14.680Z,17.80
2022-11-27T12:25:46.845Z,16.90
2022-11-27T12:28:25.192Z,16.20
2022-11-27T12:30:57.225Z,15.60
2022-11-27T12:33:40.316Z,15.70
2022-11-27T12:36:11.650Z,15.80
2022-11-27T12:38:46.603Z,15.40
2022-11-27T12:41:29.690Z,15.30
2022-11-27T12:44:00.398Z,15.10
2022-11-27T12:46:34.510Z,14.50
2022-11-27T12:49:05.414Z,14.30
2022-11-27T12:51:35.236Z,13.90
2022-11-27T12:54:04.893Z,13.70
2022-11-27T12:56:34.344Z,13.40
2022-11-27T12:59:05.733Z,13.20
2022-11-27T13:01:37.636Z,13.10
2022-11-27T13:04:12.079Z,12.90
2022-11-27T13:06:45.727Z,13.10
2022-11-27T13:09:15.241Z,13.80
2022-11-27T13:11:44.369Z,14.60
2022-11-27T13:14:17.146Z,14.90
2022-11-27T13:16:48.348Z,15.60
2022-11-27T13:19:21.381Z,15.90
2022-11-27T13:21:50.339Z,15.50
2022-11-27T13:24:18.558Z,15.10
2022-11-27T13:26:49.542Z,14.50
2022-11-27T13:29:20.531Z,14.00
2022-11-27T13:31:53.666Z,13.70
2022-11-27T13:34:23.054Z,12.90
2022-11-27T13:36:56.499Z,12.30
2022-11-27T13:39:26.073Z,11.70
2022-11-27T13:42:00.948Z,11.00
2022-11-27T13:44:29.930Z,10.60
2022-11-27T13:47:01.411Z,10.30
2022-11-27T13:49:31.543Z,10.10
2022-11-27T13:52:07.272Z,9.80
2022-11-27T13:54:38.264Z,9.50
2022-11-27T13:57:13.314Z,9.40
2022-11-27T13:59:41.510Z,9.20
2022-11-27T14:02:10.919Z,9.00
2022-11-27T14:04:53.078Z,9.00
2022-11-27T14:07:24.571Z,8.80
2022-11-27T14:09:54.140Z,8.70
2022-11-27T14:12:28.389Z,8.60
2022-11-27T14:15:03.693Z,8.60
2022-11-27T14:17:37.644Z,8.50
2022-11-27T14:20:07.505Z,8.50
2022-11-27T14:23:00.539Z,8.50
2022-11-27T14:25:31.758Z,8.60
2022-11-27T14:28:01.584Z,8.50
2022-11-27T14:30:32.634Z,8.40
2022-11-27T14:33:03.471Z,8.20
2022-11-27T14:35:31.701Z,8.10
2022-11-27T14:38:11.668Z,7.90
2022-11-27T14:40:39.698Z,7.80
2022-11-27T14:43:11.802Z,7.80
2022-11-27T14:45:43.595Z,7.80
2022-11-27T14:48:17.218Z,7.90
2022-11-27T14:50:47.103Z,7.80
2022-11-27T14:53:15.490Z,7.90
2022-11-27T14:55:44.052Z,7.90
2022-11-27T14:58:16.552Z,7.90
2022-11-27T15:00:54.272Z,7.90
2022-11-27T15:03:24.484Z,7.80
2022-11-27T15:05:53.577Z,7.80
2022-11-27T15:08:21.647Z,7.80
2022-11-27T15:10:50.079Z,7.80
2022-11-27T15:13:21.312Z,7.80
2022-11-27T15:15:54.514Z,7.90
2022-11-27T15:18:24.378Z,7.90
2022-11-27T15:20:53.173Z,7.90
2022-11-27T15:23:24.491Z,7.90
2022-11-27T15:25:53.342Z,7.90
2022-11-27T15:28:34.864Z,7.90
2022-11-27T15:31:03.777Z,7.90
2022-11-27T15:33:34.053Z,7.90
2022-11-27T15:36:15.840Z,8.00
2022-11-27T15:38:45.441Z,8.00
2022-11-27T15:41:24.169Z,7.80
2022-11-27T15:43:52.271Z,7.60
2022-11-27T15:46:23.959Z,7.50
2022-11-27T15:48:53.595Z,7.50
2022-11-27T15:51:23.424Z,7.40
2022-11-27T15:53:51.424Z,7.40
2022-11-27T15:56:19.745Z,7.30
2022-11-27T15:58:47.696Z,7.40
2022-11-27T16:01:22.989Z,7.30
2022-11-27T16:03:51.235Z,7.10
2022-11-27T16:06:23.417Z,7.10
2022-11-27T16:08:54.452Z,7.10
2022-11-27T16:11:22.444Z,7.10
2022-11-27T16:13:50.454Z,7.10
2022-11-27T16:16:18.622Z,7.10
2022-11-27T16:18:46.709Z,7.10
2022-11-27T16:21:15.234Z,7.00
2022-11-27T16:23:44.830Z,6.90
2022-11-27T16:26:13.132Z,6.90
2022-11-27T16:28:41.695Z,6.80
2022-11-27T16:31:11.478Z,6.80
2022-11-27T16:33:39.658Z,6.80
2022-11-27T16:36:08.626Z,6.80
2022-11-27T16:38:37.327Z,6.80
2022-11-27T16:41:07.790Z,6.70
2022-11-27T16:43:37.047Z,6.70
2022-11-27T16:46:06.496Z,6.80
2022-11-27T16:48:37.128Z,6.80
2022-11-27T16:51:05.775Z,6.80
2022-11-27T16:53:33.958Z,6.90
2022-11-27T16:56:02.100Z,7.00
2022-11-27T16:58:35.333Z,7.10
2022-11-27T17:01:05.557Z,7.20
2022-11-27T17:03:33.712Z,7.20
2022-11-27T17:06:01.812Z,7.30
2022-11-27T17:08:29.839Z,7.30
2022-11-27T17:10:57.838Z,7.30
2022-11-27T17:13:25.848Z,7.40
2022-11-27T17:15:56.866Z,7.40
2022-11-27T17:18:24.923Z,7.40
2022-11-27T17:20:53.773Z,7.50
2022-11-27T17:23:22.343Z,7.60
2022-11-27T17:25:50.407Z,7.60
2022-11-27T17:28:18.462Z,7.60
2022-11-27T17:30:46.568Z,7.60
2022-11-27T17:33:15.855Z,7.60
2022-11-27T17:35:44.084Z,7.60
2022-11-27T17:38:13.354Z,7.60
2022-11-27T17:40:41.273Z,7.60
2022-11-27T17:43:09.289Z,7.60
2022-11-27T17:45:41.087Z,7.60
2022-11-27T17:48:09.256Z,7.60
2022-11-27T17:50:39.174Z,7.60
2022-11-27T17:53:08.230Z,7.60
2022-11-27T17:55:36.186Z,7.50
2022-11-27T17:58:04.977Z,7.50
2022-11-27T18:00:34.408Z,7.50
2022-11-27T18:03:09.054Z,7.50
2022-11-27T18:05:39.444Z,7.40
2022-11-27T18:08:07.683Z,7.30
2022-11-27T18:10:35.781Z,7.20
2022-11-27T18:13:04.251Z,7.10
2022-11-27T18:15:32.857Z,7.10
2022-11-27T18:18:01.039Z,7.00
2022-11-27T18:20:29.225Z,7.00
2022-11-27T18:22:59.082Z,6.90
2022-11-27T18:25:27.109Z,6.90
2022-11-27T18:27:55.178Z,6.90
2022-11-27T18:30:23.459Z,6.80
2022-11-27T18:32:51.656Z,6.80
2022-11-27T18:35:19.934Z,6.70
2022-11-27T18:37:47.806Z,6.60
2022-11-27T18:40:17.302Z,6.60
2022-11-27T18:42:45.576Z,6.60
2022-11-27T18:45:31.779Z,6.70
2022-11-27T18:48:01.530Z,6.70
2022-11-27T18:50:30.006Z,6.80
2022-11-27T18:52:58.191Z,6.80
2022-11-27T18:55:27.668Z,6.80
2022-11-27T18:57:55.959Z,6.80
2022-11-27T19:00:24.079Z,6.80
2022-11-27T19:02:52.038Z,6.80
2022-11-27T19:05:19.993Z,6.80
2022-11-27T19:07:49.638Z,6.80
2022-11-27T19:10:20.800Z,6.80
2022-11-27T19:12:50.482Z,6.80
2022-11-27T19:15:18.733Z,6.80
2022-11-27T19:17:46.831Z,6.80
2022-11-27T19:20:14.856Z,6.80
2022-11-27T19:22:43.123Z,6.80
2022-11-27T19:25:11.490Z,6.80
2022-11-27T19:27:41.037Z,6.90
2022-11-27T19:30:11.315Z,6.90
2022-11-27T19:32:39.873Z,6.90
2022-11-27T19:35:09.180Z,6.90
2022-11-27T19:37:38.118Z,6.90
2022-11-27T19:40:07.454Z,6.80
2022-11-27T19:42:35.583Z,6.80
2022-11-27T19:45:03.527Z,6.70
2022-11-27T19:47:32.854Z,6.70
2022-11-27T19:50:02.211Z,6.70
2022-11-27T19:52:30.225Z,6.70
2022-11-27T19:54:58.358Z,6.60
2022-11-27T19:57:26.460Z,6.60
2022-11-27T19:59:54.766Z,6.60
2022-11-27T20:02:24.494Z,6.60
2022-11-27T20:05:02.896Z,6.60
2022-11-27T20:07:31.416Z,6.60
2022-11-27T20:09:59.733Z,6.70
2022-11-27T20:12:27.813Z,6.70
2022-11-27T20:14:57.943Z,6.70
2022-11-27T20:17:26.642Z,6.80
2022-11-27T20:19:56.909Z,6.90
2022-11-27T20:22:25.327Z,6.90
2022-11-27T20:25:18.006Z,6.90
2022-11-27T20:27:42.103Z,7.00
2022-11-27T20:30:10.581Z,7.00
2022-11-27T20:32:39.331Z,7.00
2022-11-27T20:35:09.506Z,6.90
2022-11-27T20:37:37.930Z,6.90
2022-11-27T20:40:06.782Z,6.80
2022-11-27T20:42:34.849Z,6.80
2022-11-27T20:45:05.238Z,6.70
2022-11-27T20:47:35.488Z,6.70
2022-11-27T20:50:03.581Z,6.70
2022-11-27T20:52:34.487Z,6.60
2022-11-27T20:55:03.212Z,6.60
2022-11-27T20:57:31.393Z,6.50
2022-11-27T20:59:59.691Z,6.50
2022-11-27T21:02:27.815Z,6.50
2022-11-27T21:04:55.892Z,6.50
2022-11-27T21:07:24.193Z,6.50
2022-11-27T21:09:54.063Z,6.50
2022-11-27T21:12:22.455Z,6.40
2022-11-27T21:14:50.780Z,6.50
2022-11-27T21:17:19.344Z,6.40
2022-11-27T21:19:47.423Z,6.40
2022-11-27T21:22:15.485Z,6.40
2022-11-27T21:24:44.028Z,6.40
2022-11-27T21:27:13.729Z,6.30
2022-11-27T21:29:42.125Z,6.30
2022-11-27T21:32:10.622Z,6.30
2022-11-27T21:34:40.527Z,6.20
2022-11-27T21:37:08.827Z,6.20
2022-11-27T21:39:37.368Z,6.20
2022-11-27T21:42:05.490Z,6.20
2022-11-27T21:44:34.864Z,6.20
2022-11-27T21:47:06.022Z,6.20
2022-11-27T21:49:34.000Z,6.20
2022-11-27T21:52:02.446Z,6.30
2022-11-27T21:54:33.680Z,6.30
2022-11-27T21:57:02.416Z,6.30
2022-11-27T21:59:30.444Z,6.30
2022-11-27T22:02:00.221Z,6.40
2022-11-27T22:04:28.434Z,6.40
2022-11-27T22:06:59.740Z,6.50
2022-11-27T22:09:30.149Z,6.40
2022-11-27T22:11:58.359Z,6.40
2022-11-27T22:14:26.676Z,6.40
2022-11-27T22:16:56.297Z,6.40
2022-11-27T22:19:25.645Z,6.40
2022-11-27T22:21:53.635Z,6.40
2022-11-27T22:24:21.503Z,6.50
2022-11-27T22:26:53.216Z,6.50
2022-11-27T22:29:21.322Z,6.60
2022-11-27T22:31:49.375Z,6.60
2022-11-27T22:34:18.057Z,6.60
2022-11-27T22:36:48.361Z,6.60
2022-11-27T22:39:16.394Z,6.60
2022-11-27T22:41:45.798Z,6.70
2022-11-27T22:44:15.946Z,6.70
2022-11-27T22:46:43.844Z,6.70
2022-11-27T22:49:12.775Z,6.70
2022-11-27T22:51:41.122Z,6.80
2022-11-27T22:54:12.563Z,6.70
2022-11-27T22:56:40.580Z,6.70
2022-11-27T23:01:59.554Z,6.60
2022-11-27T23:04:27.674Z,6.60
2022-11-27T23:06:55.584Z,6.60
2022-11-27T23:09:25.760Z,6.60
2022-11-27T23:11:53.699Z,6.60
2022-11-27T23:14:21.709Z,6.60
2022-11-27T23:16:49.714Z,6.60
2022-11-27T23:19:17.716Z,6.50
2022-11-27T23:21:46.430Z,6.40
2022-11-27T23:24:15.434Z,6.40
2022-11-27T23:26:46.933Z,6.30
2022-11-27T23:29:15.023Z,6.30
2022-11-27T23:31:42.940Z,6.30
2022-11-27T23:34:17.006Z,6.20
2022-11-27T23:36:48.765Z,6.10
2022-11-27T23:39:16.664Z,6.10
2022-11-27T23:41:46.296Z,6.00
2022-11-27T23:44:14.256Z,5.90
2022-11-27T23:46:42.259Z,5.90
2022-11-27T23:49:10.263Z,5.90
2022-11-27T23:51:38.076Z,5.90
2022-11-27T23:54:08.305Z,5.90
2022-11-27T23:56:36.404Z,6.00
2022-11-27T23:59:06.005Z,6.00
